Time;durP1;ratioP1;P1;durP2;ratioP2;P2;SDS_P1;SDS_P2;PMS_P1;PMS_P2;Temp;Humidity;BMP_temperature;BMP_pressure;BME280_temperature;BME280_humidity;BME280_pressure;Samples;Min_cycle;Max_cycle;Signal;HPM_P1;HPM_P2
2023/06/13 00:00:57;;;;;;;6.93;5.15;;;;;;;22.92;58.21;101273.34;5278400;28;20031;-81
2023/06/13 00:03:29;;;;;;;6.65;4.97;;;;;;;22.82;57.93;101275.69;5282826;28;20034;-81
2023/06/13 00:06:01;;;;;;;8.27;6.00;;;;;;;22.89;58.28;101275.66;5279605;28;20028;-81
2023/06/13 00:08:33;;;;;;;10.63;6.40;;;;;;;22.80;58.65;101270.44;5278626;28;20650;-81
2023/06/13 00:11:04;;;;;;;9.30;5.43;;;;;;;22.82;58.62;101271.06;5280649;28;20034;-81
2023/06/13 00:13:38;;;;;;;7.85;5.93;;;;;;;22.82;59.07;101268.34;5277363;28;20025;-82
2023/06/13 00:16:11;;;;;;;9.55;5.35;;;;;;;22.73;58.93;101264.19;5276546;28;20024;-82
2023/06/13 00:18:45;;;;;;;7.55;5.38;;;;;;;22.74;59.01;101267.75;5278541;28;20047;-82
2023/06/13 00:21:17;;;;;;;7.95;5.18;;;;;;;22.68;59.25;101265.88;5276560;28;20024;-82
2023/06/13 00:23:48;;;;;;;6.65;4.55;;;;;;;22.63;59.84;101261.94;5278552;28;20024;-81
2023/06/13 00:26:19;;;;;;;8.27;4.93;;;;;;;22.56;59.56;101255.69;5277939;28;20062;-81
2023/06/13 00:28:52;;;;;;;7.43;4.97;;;;;;;22.54;60.02;101259.63;5280112;28;20222;-82
2023/06/13 00:31:28;;;;;;;7.25;5.65;;;;;;;22.44;60.48;101258.19;5278579;28;20044;-82
2023/06/13 00:34:00;;;;;;;11.60;5.38;;;;;;;22.38;60.00;101256.31;5276520;28;20039;-82
2023/06/13 00:36:34;;;;;;;7.13;5.30;;;;;;;22.24;60.24;101263.59;5280153;28;20024;-83
2023/06/13 00:39:06;;;;;;;8.32;5.18;;;;;;;22.35;60.71;101259.47;5277415;28;20038;-81
2023/06/13 00:41:37;;;;;;;6.70;4.68;;;;;;;22.23;60.79;101256.50;5288095;28;20500;-81
2023/06/13 00:44:09;;;;;;;8.23;4.90;;;;;;;22.10;61.32;101262.75;5287151;28;20028;-81
2023/06/13 00:46:41;;;;;;;7.55;4.88;;;;;;;22.10;61.64;101262.75;5282705;28;20040;-82
2023/06/13 00:49:15;;;;;;;7.18;5.70;;;;;;;21.96;61.57;101266.53;5280771;28;20027;-81
2023/06/13 00:51:47;;;;;;;7.60;5.45;;;;;;;21.98;62.28;101264.44;5281022;28;20025;-81
2023/06/13 00:54:21;;;;;;;8.40;5.43;;;;;;;21.89;63.09;101257.53;5280125;28;20023;-81
2023/06/13 00:56:52;;;;;;;7.43;5.28;;;;;;;21.79;63.47;101266.09;5278224;28;20024;-82
2023/06/13 00:59:24;;;;;;;7.20;4.93;;;;;;;21.80;63.73;101261.50;5280179;28;20530;-81
2023/06/13 01:01:56;;;;;;;7.93;4.68;;;;;;;21.63;64.98;101259.16;5278355;28;20030;-81
2023/06/13 01:04:30;;;;;;;10.60;5.30;;;;;;;21.71;65.25;101253.53;5283027;28;20020;-82
2023/06/13 01:07:01;;;;;;;8.23;4.40;;;;;;;21.60;65.15;101250.59;5278820;28;20036;-81
2023/06/13 01:09:33;;;;;;;8.35;4.97;;;;;;;21.61;65.24;101250.38;5281207;28;20507;-81
2023/06/13 01:12:20;;;;;;;7.53;5.32;;;;;;;21.57;65.50;101248.31;5280623;28;20047;-82
2023/06/13 01:15:10;;;;;;;6.35;4.43;;;;;;;21.48;65.58;101251.19;5277163;28;20409;-81
2023/06/13 01:17:49;;;;;;;7.55;4.75;;;;;;;21.34;66.52;101246.75;5279410;28;20036;-81
2023/06/13 01:20:21;;;;;;;8.10;4.43;;;;;;;21.22;66.42;101251.09;5279653;28;20147;-81
2023/06/13 01:22:57;;;;;;;8.65;4.90;;;;;;;21.23;67.27;101248.19;5276858;28;20028;-82
2023/06/13 01:25:52;;;;;;;6.00;4.45;;;;;;;21.19;67.47;101255.03;5277725;28;20033;-81
2023/06/13 01:28:24;;;;;;;7.47;4.25;;;;;;;21.07;68.40;101253.94;5277763;28;20289;-82
2023/06/13 01:30:56;;;;;;;5.35;4.65;;;;;;;20.98;68.81;101252.44;5276987;28;20835;-82
2023/06/13 01:33:29;;;;;;;7.50;4.50;;;;;;;20.98;69.60;101255.16;5246310;28;1053328;-82
2023/06/13 01:36:01;;;;;;;8.52;4.70;;;;;;;20.88;70.30;101250.09;5284819;28;20028;-82
2023/06/13 01:38:33;;;;;;;7.70;4.70;;;;;;;20.79;70.01;101249.41;5295954;28;20401;-82
2023/06/13 01:41:05;;;;;;;6.10;4.10;;;;;;;20.69;70.43;101248.97;5295785;28;20327;-82
2023/06/13 01:43:36;;;;;;;5.85;4.35;;;;;;;20.74;71.41;101246.50;5296261;28;20012;-82
2023/06/13 01:46:56;;;;;;;7.40;4.13;;;;;;;20.80;71.00;101250.28;5292362;28;20236;-82
2023/06/13 01:49:55;;;;;;;8.27;4.57;;;;;;;20.71;71.48;101245.00;5277026;28;20036;-82
2023/06/13 01:52:54;;;;;;;6.38;4.20;;;;;;;20.54;71.92;101249.88;5280580;28;20048;-82
2023/06/13 01:55:35;;;;;;;6.35;4.88;;;;;;;20.53;72.68;101239.22;5282833;28;20135;-82
2023/06/13 01:58:16;;;;;;;8.27;4.50;;;;;;;20.45;73.07;101242.94;5277745;28;20031;-82
2023/06/13 02:00:55;;;;;;;5.93;4.43;;;;;;;20.40;73.50;101243.53;5279389;28;20362;-82
2023/06/13 02:03:27;;;;;;;8.75;4.75;;;;;;;20.32;73.71;101235.56;5283532;28;20028;-82
2023/06/13 02:05:58;;;;;;;8.25;4.75;;;;;;;20.29;74.32;101233.25;5283098;28;20422;-82
2023/06/13 02:08:30;;;;;;;10.73;4.15;;;;;;;20.24;75.17;101238.41;5284518;28;20028;-82
2023/06/13 02:11:01;;;;;;;8.52;4.45;;;;;;;20.21;75.69;101234.25;5274725;28;20296;-83
2023/06/13 02:13:32;;;;;;;8.32;4.32;;;;;;;20.19;76.46;101233.56;5277147;28;20036;-84
2023/06/13 02:16:04;;;;;;;9.77;4.95;;;;;;;20.11;76.99;101241.00;5276517;28;20046;-84
2023/06/13 02:18:37;;;;;;;5.60;4.88;;;;;;;20.06;77.30;101243.47;5277162;28;20453;-83
2023/06/13 02:21:08;;;;;;;6.50;4.47;;;;;;;20.02;78.53;101246.56;5274256;28;20040;-83
2023/06/13 02:23:39;;;;;;;9.63;4.32;;;;;;;19.97;79.51;101250.91;5275490;28;20561;-83
2023/06/13 02:26:10;;;;;;;7.22;4.80;;;;;;;19.91;79.29;101240.84;5271140;28;20020;-71
2023/06/13 02:28:42;;;;;;;9.18;4.85;;;;;;;19.88;79.58;101242.09;5266873;28;20077;-71
2023/06/13 02:31:13;;;;;;;6.85;4.15;;;;;;;19.92;80.49;101247.94;5271161;28;20031;-71
2023/06/13 02:33:45;;;;;;;5.75;4.10;;;;;;;19.82;80.56;101242.84;5265408;28;20032;-71
2023/06/13 02:36:16;;;;;;;6.05;4.38;;;;;;;19.79;81.24;101243.22;5265795;28;20125;-71
2023/06/13 02:38:47;;;;;;;6.28;4.57;;;;;;;19.73;81.52;101241.28;5267434;28;20025;-71
2023/06/13 02:41:19;;;;;;;5.65;4.53;;;;;;;19.76;81.86;101246.34;5266434;28;20031;-71
2023/06/13 02:43:50;;;;;;;8.15;4.65;;;;;;;19.70;83.11;101250.59;5264873;28;20032;-71
2023/06/13 02:46:21;;;;;;;11.45;4.60;;;;;;;19.70;82.41;101253.31;5266975;28;20357;-71
2023/06/13 02:48:52;;;;;;;5.43;4.85;;;;;;;19.65;83.18;101253.91;5265510;28;20439;-71
2023/06/13 02:51:24;;;;;;;6.22;4.43;;;;;;;19.56;83.70;101248.78;5266469;28;20043;-71
2023/06/13 02:53:55;;;;;;;9.05;4.57;;;;;;;19.57;84.63;101242.38;5262296;28;20024;-71
2023/06/13 02:56:28;;;;;;;7.15;4.65;;;;;;;19.55;84.69;101244.44;5265767;28;20086;-71
2023/06/13 02:59:00;;;;;;;5.40;4.40;;;;;;;19.55;85.49;101247.13;5267860;28;20359;-71
2023/06/13 03:01:31;;;;;;;8.13;4.40;;;;;;;19.49;85.21;101248.72;5265998;28;20063;-71
2023/06/13 03:04:02;;;;;;;7.10;4.43;;;;;;;19.48;85.83;101244.34;5268966;28;20081;-71
2023/06/13 03:06:36;;;;;;;9.90;4.70;;;;;;;19.39;86.97;101243.63;5266307;28;20275;-70
2023/06/13 03:09:08;;;;;;;8.20;5.00;;;;;;;19.36;86.71;101249.41;5215877;28;20333;-71
2023/06/13 03:11:39;;;;;;;6.82;4.68;;;;;;;19.31;87.80;101242.91;5186695;28;20688;-69
2023/06/13 03:14:16;;;;;;;7.47;4.93;;;;;;;19.18;88.29;101249.84;5186020;28;20760;-71
2023/06/13 03:16:48;;;;;;;9.98;5.38;;;;;;;19.15;90.44;101246.69;5206939;28;20039;-70
2023/06/13 03:19:19;;;;;;;5.88;4.32;;;;;;;19.07;89.81;101250.31;5267552;28;20045;-70
2023/06/13 03:21:51;;;;;;;10.82;5.10;;;;;;;19.09;89.90;101250.94;5264238;28;20032;-70
2023/06/13 03:24:22;;;;;;;9.05;5.38;;;;;;;18.98;90.74;101246.03;5265124;28;20116;-71
2023/06/13 03:26:53;;;;;;;6.25;4.78;;;;;;;18.92;91.47;101249.50;5265373;28;20051;-70
2023/06/13 03:29:24;;;;;;;8.18;4.80;;;;;;;18.95;92.36;101246.41;5268552;28;20024;-70
2023/06/13 03:31:56;;;;;;;7.90;4.97;;;;;;;18.94;93.08;101242.88;5264113;28;20054;-70
2023/06/13 03:34:28;;;;;;;10.18;5.05;;;;;;;18.82;93.43;101242.50;5265146;28;20334;-71
2023/06/13 03:37:03;;;;;;;9.40;5.50;;;;;;;18.91;93.90;101240.53;5263968;28;20028;-70
2023/06/13 03:39:35;;;;;;;11.52;4.80;;;;;;;18.79;94.85;101242.84;5264929;28;20032;-70
2023/06/13 03:42:06;;;;;;;7.95;5.45;;;;;;;18.66;95.21;101240.78;5264752;28;20082;-70
2023/06/13 03:44:38;;;;;;;8.35;5.45;;;;;;;18.66;95.25;101242.66;5264970;28;20032;-70
2023/06/13 03:47:09;;;;;;;13.27;5.78;;;;;;;18.72;95.99;101239.19;5265217;28;20021;-69
2023/06/13 03:49:41;;;;;;;7.70;5.13;;;;;;;18.74;96.76;101239.03;5265251;28;20028;-71
2023/06/13 03:52:12;;;;;;;9.30;4.97;;;;;;;18.65;97.76;101241.84;5266414;28;20033;-71
2023/06/13 03:54:43;;;;;;;7.40;5.38;;;;;;;18.56;99.73;101232.13;5269494;28;20023;-72
2023/06/13 03:57:14;;;;;;;8.40;4.95;;;;;;;18.57;100.00;101238.38;5265871;28;20029;-71
2023/06/13 03:59:46;;;;;;;6.13;5.00;;;;;;;18.56;100.00;101236.69;5267728;28;20028;-71
2023/06/13 04:02:19;;;;;;;10.88;4.97;;;;;;;18.60;100.00;101244.25;5264955;28;20108;-71
2023/06/13 04:04:52;;;;;;;8.93;5.43;;;;;;;18.59;100.00;101242.56;5268935;28;20033;-71
2023/06/13 04:07:25;;;;;;;8.30;4.93;;;;;;;18.64;100.00;101248.25;5264873;28;20414;-71
2023/06/13 04:09:56;;;;;;;6.30;4.93;;;;;;;18.58;100.00;101240.88;5277266;28;20134;-71
2023/06/13 04:12:28;;;;;;;9.43;5.18;;;;;;;18.55;100.00;101243.97;5264205;28;20682;-71
2023/06/13 04:14:59;;;;;;;8.52;5.75;;;;;;;18.51;100.00;101246.22;5263670;28;20028;-71
2023/06/13 04:17:32;;;;;;;8.23;5.20;;;;;;;18.58;100.00;101243.56;5265404;28;20033;-71
2023/06/13 04:20:05;;;;;;;8.25;4.95;;;;;;;18.63;100.00;101241.16;5264301;28;20039;-71
2023/06/13 04:22:36;;;;;;;10.73;5.13;;;;;;;18.60;100.00;101251.50;5264603;28;20466;-71
2023/06/13 04:25:08;;;;;;;8.82;5.53;;;;;;;18.52;100.00;101249.72;5247447;28;20033;-71
2023/06/13 04:27:39;;;;;;;9.95;5.70;;;;;;;18.62;100.00;101244.91;5268202;28;20028;-71
2023/06/13 04:30:12;;;;;;;7.35;4.70;;;;;;;18.60;100.00;101255.06;5267872;28;20024;-71
2023/06/13 04:32:45;;;;;;;7.70;5.47;;;;;;;18.63;100.00;101253.84;5267946;28;20043;-71
2023/06/13 04:35:17;;;;;;;7.88;5.38;;;;;;;18.66;100.00;101261.56;5268507;28;20017;-71
2023/06/13 04:37:49;;;;;;;7.13;5.72;;;;;;;18.70;100.00;101261.00;5267805;28;20035;-72
2023/06/13 04:40:20;;;;;;;10.18;6.00;;;;;;;18.69;100.00;101259.34;5268423;28;20024;-71
2023/06/13 04:42:54;;;;;;;10.65;5.82;;;;;;;18.78;100.00;101261.97;5267478;28;20032;-72
2023/06/13 04:45:25;;;;;;;7.15;5.40;;;;;;;18.76;100.00;101256.75;5269251;28;20139;-72
2023/06/13 04:48:01;;;;;;;8.25;5.25;;;;;;;18.78;100.00;101254.69;5267348;28;20020;-72
2023/06/13 04:50:33;;;;;;;10.18;5.80;;;;;;;18.80;100.00;101268.00;5270040;28;20111;-72
2023/06/13 04:53:07;;;;;;;8.63;5.18;;;;;;;18.82;100.00;101264.13;5269774;28;20453;-72
2023/06/13 04:55:38;;;;;;;8.32;5.32;;;;;;;18.82;100.00;101266.00;5272396;28;20032;-72
2023/06/13 04:58:10;;;;;;;9.45;5.70;;;;;;;18.88;100.00;101266.09;5267470;28;20026;-71
2023/06/13 05:00:41;;;;;;;6.13;5.35;;;;;;;18.93;100.00;101265.50;5268329;28;20036;-72
2023/06/13 05:03:16;;;;;;;9.52;5.45;;;;;;;18.92;100.00;101268.44;5269011;28;20055;-72
2023/06/13 05:05:49;;;;;;;6.72;5.82;;;;;;;18.89;100.00;101272.31;5269744;28;20143;-72
2023/06/13 05:08:21;;;;;;;8.60;5.53;;;;;;;18.98;100.00;101268.50;5267853;28;20459;-72
2023/06/13 05:10:53;;;;;;;7.72;5.30;;;;;;;19.01;100.00;101281.63;5269732;28;20033;-71
2023/06/13 05:13:24;;;;;;;10.60;6.00;;;;;;;19.05;100.00;101276.69;5267517;28;20055;-71
2023/06/13 05:15:55;;;;;;;11.18;5.82;;;;;;;19.16;100.00;101278.94;5266315;28;20040;-72
2023/06/13 05:18:29;;;;;;;8.52;5.80;;;;;;;19.22;100.00;101282.75;5269838;28;20362;-72
2023/06/13 05:21:01;;;;;;;9.02;5.22;;;;;;;19.28;100.00;101279.25;5268452;28;20027;-72
2023/06/13 05:23:32;;;;;;;9.25;5.43;;;;;;;19.29;100.00;101280.94;5267283;28;20056;-72
2023/06/13 05:26:04;;;;;;;6.57;5.43;;;;;;;19.44;100.00;101284.47;5266571;28;20029;-72
2023/06/13 05:28:35;;;;;;;8.63;5.50;;;;;;;19.44;100.00;101286.31;5267415;28;20056;-72
2023/06/13 05:31:06;;;;;;;10.05;5.25;;;;;;;19.54;100.00;101292.25;5267741;28;20464;-72
2023/06/13 05:33:38;;;;;;;5.47;4.80;;;;;;;19.56;100.00;101286.66;5267888;28;20037;-73
2023/06/13 05:36:09;;;;;;;9.63;5.63;;;;;;;19.62;100.00;101289.44;5266410;28;20141;-72
2023/06/13 05:38:40;;;;;;;9.40;5.53;;;;;;;19.67;100.00;101288.03;5265899;28;20073;-72
2023/06/13 05:41:12;;;;;;;6.38;5.50;;;;;;;19.78;100.00;101282.16;5266551;28;20320;-72
2023/06/13 05:43:43;;;;;;;9.88;5.82;;;;;;;19.79;100.00;101281.13;5266677;28;20163;-72
2023/06/13 05:46:14;;;;;;;8.18;5.47;;;;;;;19.94;100.00;101289.19;5267507;28;20028;-72
2023/06/13 05:48:46;;;;;;;8.45;5.72;;;;;;;19.99;100.00;101289.44;5266410;28;20032;-72
2023/06/13 05:51:17;;;;;;;7.97;5.25;;;;;;;20.08;100.00;101288.28;5270610;28;20070;-72
2023/06/13 05:53:48;;;;;;;9.57;6.30;;;;;;;20.04;100.00;101289.72;5269850;28;20036;-72
2023/06/13 05:56:20;;;;;;;6.53;5.13;;;;;;;20.18;100.00;101286.06;5266964;28;20020;-72
2023/06/13 05:58:51;;;;;;;6.03;5.28;;;;;;;20.26;100.00;101295.91;5265772;28;20417;-72
2023/06/13 06:01:24;;;;;;;10.55;6.15;;;;;;;20.30;100.00;101290.94;5276509;28;20040;-82
2023/06/13 06:03:55;;;;;;;7.40;5.78;;;;;;;20.44;100.00;101298.16;5271009;28;20031;-82
2023/06/13 06:06:26;;;;;;;7.88;5.40;;;;;;;20.58;100.00;101293.66;5274349;28;20028;-82
2023/06/13 06:08:58;;;;;;;9.75;5.50;;;;;;;20.67;100.00;101297.94;5272965;28;20111;-82
2023/06/13 06:11:31;;;;;;;7.32;5.20;;;;;;;20.75;100.00;101303.19;5279930;28;20020;-82
2023/06/13 06:14:02;;;;;;;10.35;5.35;;;;;;;20.99;100.00;101300.22;5275409;28;20106;-80
2023/06/13 06:16:34;;;;;;;11.60;5.70;;;;;;;21.15;100.00;101306.13;5280596;28;20481;-81
2023/06/13 06:19:05;;;;;;;10.15;5.88;;;;;;;21.40;100.00;101299.34;5270351;28;20028;-81
2023/06/13 06:21:36;;;;;;;9.93;4.90;;;;;;;21.54;99.52;101301.09;5272600;28;20035;-82
2023/06/13 06:24:08;;;;;;;6.55;5.07;;;;;;;21.77;98.22;101300.75;5270204;28;20024;-83
2023/06/13 06:26:39;;;;;;;10.02;6.13;;;;;;;21.93;97.64;101285.94;5281516;28;20119;-84
2023/06/13 06:29:11;;;;;;;7.43;5.43;;;;;;;22.19;97.66;101292.44;5273565;28;20125;-84
2023/06/13 06:31:42;;;;;;;13.70;5.78;;;;;;;22.42;95.23;101295.63;5279730;28;20099;-83
2023/06/13 06:34:13;;;;;;;11.25;6.03;;;;;;;22.67;93.77;101300.41;5272417;28;20067;-83
2023/06/13 06:36:45;;;;;;;10.88;5.63;;;;;;;22.93;92.10;101294.06;5272653;28;20020;-83
2023/06/13 06:39:16;;;;;;;10.50;5.35;;;;;;;23.13;91.98;101298.63;5278130;28;20109;-84
2023/06/13 06:41:48;;;;;;;11.23;5.18;;;;;;;23.30;91.62;101297.09;5270409;28;20544;-84
2023/06/13 06:44:19;;;;;;;10.07;5.57;;;;;;;23.51;90.13;101297.81;5271977;28;20032;-85
2023/06/13 06:46:50;;;;;;;8.27;5.30;;;;;;;23.63;88.89;101298.81;5271187;28;20032;-84
2023/06/13 06:49:22;;;;;;;10.52;5.57;;;;;;;24.00;88.73;101290.88;5275025;28;20394;-86
2023/06/13 06:51:53;;;;;;;10.57;5.13;;;;;;;24.20;88.15;101295.34;5267727;28;20104;-85
2023/06/13 06:54:25;;;;;;;12.85;5.55;;;;;;;24.43;86.11;101295.53;5277772;28;20036;-84
2023/06/13 06:56:56;;;;;;;8.88;5.95;;;;;;;24.51;83.97;101294.44;5271227;28;20454;-84
2023/06/13 06:59:27;;;;;;;7.70;4.80;;;;;;;24.73;84.33;101287.50;5277247;28;20047;-83
2023/06/13 07:01:58;;;;;;;9.70;5.90;;;;;;;24.83;83.33;101281.53;5287607;28;20057;-84
2023/06/13 07:04:30;;;;;;;14.93;5.40;;;;;;;24.97;83.36;101286.84;5277136;28;20043;-85
2023/06/13 07:07:01;;;;;;;12.05;5.30;;;;;;;25.31;82.73;101287.31;5279181;28;20240;-84
2023/06/13 07:09:33;;;;;;;7.80;5.43;;;;;;;25.48;80.08;101286.44;5279251;28;20377;-84
2023/06/13 07:12:05;;;;;;;9.40;4.72;;;;;;;25.65;79.55;101291.25;5272530;28;20036;-83
2023/06/13 07:14:36;;;;;;;9.13;5.43;;;;;;;25.71;78.89;101294.94;5272300;28;20059;-82
2023/06/13 07:17:07;;;;;;;8.43;5.15;;;;;;;25.93;77.45;101295.22;5270455;28;20028;-84
2023/06/13 07:19:39;;;;;;;7.55;4.80;;;;;;;26.12;77.57;101296.88;5281216;28;20420;-84
2023/06/13 07:22:12;;;;;;;9.25;4.70;;;;;;;26.31;77.29;101303.06;5274205;28;20024;-84
2023/06/13 07:24:44;;;;;;;6.78;5.20;;;;;;;26.46;75.25;101308.06;5271554;28;20430;-84
2023/06/13 07:27:15;;;;;;;8.10;5.10;;;;;;;26.74;74.13;101304.66;5268585;28;20031;-85
2023/06/13 07:29:47;;;;;;;11.82;5.45;;;;;;;26.74;72.93;101301.09;5281227;28;20081;-83
2023/06/13 07:32:18;;;;;;;6.28;4.68;;;;;;;26.87;72.21;101300.00;5276839;28;20039;-83
2023/06/13 07:34:49;;;;;;;5.72;4.72;;;;;;;27.11;71.66;101298.88;5275349;28;20802;-84
2023/06/13 07:37:21;;;;;;;13.10;4.80;;;;;;;27.30;72.80;101293.25;5269821;28;20147;-83
2023/06/13 07:39:52;;;;;;;6.40;4.68;;;;;;;27.43;69.62;101306.66;5270525;28;20481;-83
2023/06/13 07:42:24;;;;;;;9.37;5.10;;;;;;;27.57;68.59;101300.91;5272233;28;20028;-84
2023/06/13 07:44:55;;;;;;;9.25;5.05;;;;;;;27.52;67.81;101297.00;5269753;28;20351;-84
2023/06/13 07:47:26;;;;;;;9.18;5.68;;;;;;;27.59;67.01;101298.75;5271735;28;20063;-84
2023/06/13 07:49:57;;;;;;;9.65;5.18;;;;;;;27.95;67.76;101289.28;5269535;28;20409;-82
2023/06/13 07:52:32;;;;;;;8.95;5.57;;;;;;;27.84;65.47;101301.09;5283506;28;20044;-83
2023/06/13 07:55:04;;;;;;;9.15;5.30;;;;;;;28.30;66.65;101296.44;5269325;28;20032;-83
2023/06/13 07:57:35;;;;;;;7.43;4.85;;;;;;;28.12;65.06;101300.28;5271139;28;20125;-82
2023/06/13 08:00:16;;;;;;;6.43;4.68;;;;;;;28.37;65.90;101288.06;5276710;28;20024;-83
2023/06/13 08:02:47;;;;;;;9.20;4.97;;;;;;;28.64;65.30;101300.00;5294927;28;20035;-85
2023/06/13 08:05:18;;;;;;;10.07;6.28;;;;;;;29.09;63.15;101305.53;5301526;28;20048;-83
2023/06/13 08:07:50;;;;;;;7.57;5.43;;;;;;;28.77;62.74;101309.78;5296430;28;20282;-83
2023/06/13 08:10:22;;;;;;;10.40;5.20;;;;;;;29.07;63.65;101302.19;5295064;28;20031;-84
2023/06/13 08:12:53;;;;;;;7.40;5.20;;;;;;;29.31;61.54;101300.06;5283227;28;20024;-83
2023/06/13 08:15:25;;;;;;;9.57;4.40;;;;;;;29.27;62.31;101290.69;5280484;28;20031;-82
2023/06/13 08:17:57;;;;;;;9.75;5.43;;;;;;;29.58;61.20;101289.91;5283401;28;20051;-84
2023/06/13 08:20:28;;;;;;;10.02;5.15;;;;;;;29.65;61.20;101291.66;5278245;28;20212;-84
2023/06/13 08:22:59;;;;;;;7.95;5.15;;;;;;;29.73;60.51;101299.41;5276570;28;20223;-83
2023/06/13 08:25:31;;;;;;;8.73;4.53;;;;;;;29.91;61.03;101296.31;5283816;28;20450;-84
2023/06/13 08:28:06;;;;;;;7.10;4.95;;;;;;;30.39;59.69;101295.63;5282345;28;20421;-84
2023/06/13 08:30:37;;;;;;;12.90;5.55;;;;;;;30.28;58.08;101300.19;5284729;28;20053;-81
2023/06/13 08:33:10;;;;;;;9.18;4.53;;;;;;;30.41;57.76;101294.25;5282733;28;20430;-83
2023/06/13 08:35:41;;;;;;;9.20;5.22;;;;;;;30.43;58.61;101296.75;5280046;28;20030;-84
2023/06/13 08:38:13;;;;;;;8.13;4.70;;;;;;;30.52;58.19;101286.88;5287011;28;20036;-82
2023/06/13 08:40:44;;;;;;;11.07;4.75;;;;;;;30.99;56.93;101293.50;5280048;28;20656;-84
2023/06/13 08:43:16;;;;;;;8.02;4.90;;;;;;;30.79;56.07;101286.78;5285529;28;20436;-83
2023/06/13 08:45:47;;;;;;;6.07;4.25;;;;;;;31.32;55.10;101278.47;5276804;28;20042;-83
2023/06/13 08:48:19;;;;;;;8.23;4.30;;;;;;;31.44;55.40;101279.06;5280221;28;20032;-83
2023/06/13 08:50:52;;;;;;;10.15;4.65;;;;;;;31.58;53.89;101279.38;5285409;28;20024;-83
2023/06/13 08:53:24;;;;;;;7.05;4.38;;;;;;;31.68;52.17;101275.84;5282780;28;20028;-81
2023/06/13 08:55:59;;;;;;;8.32;4.22;;;;;;;31.58;49.84;101273.06;5278258;28;20044;-81
2023/06/13 08:58:35;;;;;;;8.50;5.25;;;;;;;31.74;49.16;101276.66;5282433;28;20055;-81
2023/06/13 09:01:06;;;;;;;;;;;;;;;32.70;50.53;101274.94;5281768;28;20040;-82
2023/06/13 09:03:38;;;;;;;7.60;4.38;;;;;;;32.08;48.56;101278.88;5276988;28;20332;-81
2023/06/13 09:06:11;;;;;;;9.32;4.80;;;;;;;32.10;47.54;101271.16;5275789;28;20475;-81
2023/06/13 09:08:43;;;;;;;8.10;4.80;;;;;;;32.29;47.16;101263.13;5281937;28;20040;-81
2023/06/13 09:11:15;;;;;;;8.68;4.13;;;;;;;32.61;47.25;101276.63;5276886;28;20117;-82
2023/06/13 09:13:47;;;;;;;9.32;4.88;;;;;;;32.64;46.69;101266.94;5276673;28;20471;-81
2023/06/13 09:16:19;;;;;;;11.40;3.95;;;;;;;32.87;46.12;101266.34;5279867;28;20024;-81
2023/06/13 09:18:52;;;;;;;7.57;4.22;;;;;;;33.05;45.80;101269.53;5279125;28;20035;-82
2023/06/13 09:21:23;;;;;;;7.95;4.28;;;;;;;32.89;44.45;101279.84;5283507;28;20039;-81
2023/06/13 09:23:55;;;;;;;6.25;4.05;;;;;;;33.16;44.14;101273.97;5280234;28;20032;-80
2023/06/13 09:26:27;;;;;;;4.63;4.22;;;;;;;33.26;43.90;101275.81;5281477;28;20028;-80
2023/06/13 09:28:58;;;;;;;7.18;4.35;;;;;;;33.58;42.71;101264.28;5278069;28;20460;-80
2023/06/13 09:31:29;;;;;;;7.78;4.22;;;;;;;33.52;42.48;101270.97;5277622;28;20029;-81
2023/06/13 09:34:01;;;;;;;9.60;3.88;;;;;;;33.84;41.35;101255.84;5275792;28;20032;-81
2023/06/13 09:36:35;;;;;;;4.93;3.72;;;;;;;33.96;41.52;101255.44;5278128;28;20060;-80
2023/06/13 09:39:07;;;;;;;6.30;3.55;;;;;;;34.31;41.05;101261.78;5282226;28;20039;-81
2023/06/13 09:41:40;;;;;;;10.65;4.22;;;;;;;34.17;39.22;101265.22;5279489;28;20028;-82
2023/06/13 09:44:12;;;;;;;5.78;4.00;;;;;;;34.22;38.34;101259.66;5277347;28;21975;-82
2023/06/13 09:46:43;;;;;;;6.47;3.97;;;;;;;34.33;39.08;101260.38;5281627;28;20084;-81
2023/06/13 09:49:16;;;;;;;9.43;4.00;;;;;;;34.39;37.68;101255.63;5276651;28;20058;-81
2023/06/13 09:51:50;;;;;;;7.95;4.45;;;;;;;34.33;37.35;101259.53;5286436;28;20031;-81
2023/06/13 09:54:22;;;;;;;12.50;4.57;;;;;;;34.18;37.05;101257.75;5284473;28;20377;-81
2023/06/13 09:56:53;;;;;;;14.27;4.17;;;;;;;34.26;37.31;101254.38;5278102;28;20290;-81
2023/06/13 09:59:24;;;;;;;8.70;3.90;;;;;;;34.22;36.73;101244.97;5278836;28;20282;-82
2023/06/13 10:01:56;;;;;;;12.25;3.80;;;;;;;34.57;37.19;101242.94;5281525;28;20298;-82
2023/06/13 10:04:27;;;;;;;6.90;3.78;;;;;;;34.67;35.91;101243.66;5276941;28;20033;-82
2023/06/13 10:06:58;;;;;;;9.65;3.88;;;;;;;35.10;36.50;101247.56;5284733;28;20033;-81
2023/06/13 10:09:30;;;;;;;7.67;3.80;;;;;;;35.30;34.55;101250.06;5278650;28;20027;-81
2023/06/13 10:12:03;;;;;;;5.43;3.47;;;;;;;35.35;34.07;101252.78;5285620;28;20361;-81
2023/06/13 10:14:39;;;;;;;6.65;3.70;;;;;;;35.20;33.85;101248.28;5278756;28;20089;-82
2023/06/13 10:17:17;;;;;;;7.35;3.42;;;;;;;35.59;32.11;101249.06;5279594;28;20577;-81
2023/06/13 10:19:58;;;;;;;8.23;3.70;;;;;;;35.62;31.88;101245.69;5275564;28;20037;-81
2023/06/13 10:22:30;;;;;;;5.07;3.67;;;;;;;35.60;33.32;101253.50;5275917;28;20153;-82
2023/06/13 10:25:02;;;;;;;8.52;3.20;;;;;;;35.77;32.49;101244.66;5274064;28;20028;-82
2023/06/13 10:27:38;;;;;;;8.98;4.00;;;;;;;35.89;32.20;101235.84;5280366;28;20024;-82
2023/06/13 10:30:23;;;;;;;6.47;3.45;;;;;;;35.78;32.14;101247.13;5276826;28;20142;-82
2023/06/13 10:33:15;;;;;;;8.00;4.00;;;;;;;36.37;31.64;101241.09;5286163;28;20055;-83
2023/06/13 10:36:28;;;;;;;6.97;3.83;;;;;;;36.51;31.62;101253.03;5277323;28;20215;-82
2023/06/13 10:39:24;;;;;;;4.70;3.85;;;;;;;36.40;30.56;101242.44;5274095;28;20044;-82
2023/06/13 10:42:16;;;;;;;;;;;;;;;37.40;31.14;101245.31;5284923;28;20036;-82
2023/06/13 10:44:56;;;;;;;5.80;3.50;;;;;;;36.49;30.30;101248.94;5279136;28;19920;-81
2023/06/13 10:47:29;;;;;;;7.95;3.70;;;;;;;36.56;29.76;101251.31;5276499;28;20025;-80
2023/06/13 10:50:03;;;;;;;8.18;3.95;;;;;;;36.66;30.16;101239.97;5277343;28;20032;-82
2023/06/13 10:52:35;;;;;;;5.27;3.27;;;;;;;36.74;29.52;101253.16;5282491;28;20081;-82
2023/06/13 10:55:06;;;;;;;6.68;3.53;;;;;;;36.71;28.64;101243.50;5278720;28;20028;-82
2023/06/13 10:57:51;;;;;;;5.57;3.38;;;;;;;36.70;28.62;101238.25;5274126;28;20021;-83
2023/06/13 11:00:29;;;;;;;;;;;;;;;37.81;29.97;101240.72;5280767;28;20036;-81
2023/06/13 11:03:06;;;;;;;6.30;3.30;;;;;;;37.24;26.04;101232.94;5286286;28;19912;-82
2023/06/13 11:05:50;;;;;;;4.50;3.08;;;;;;;37.25;26.66;101226.22;5274094;28;20046;-83
2023/06/13 11:08:24;;;;;;;5.35;3.85;;;;;;;36.92;26.41;101229.16;5278476;28;20046;-81
2023/06/13 11:10:55;;;;;;;7.68;3.45;;;;;;;37.04;26.91;101234.19;5278575;28;20067;-82
2023/06/13 11:13:32;;;;;;;5.63;3.33;;;;;;;36.75;26.03;101227.03;5279115;28;20522;-82
2023/06/13 11:16:37;;;;;;;8.10;3.17;;;;;;;37.39;26.83;101223.38;5277840;28;20029;-80
2023/06/13 11:19:22;;;;;;;7.93;3.15;;;;;;;37.26;26.34;101225.91;5283672;28;20044;-80
2023/06/13 11:22:00;;;;;;;6.03;3.35;;;;;;;37.25;25.32;101229.81;5288719;28;20004;-80
2023/06/13 11:24:36;;;;;;;5.95;3.13;;;;;;;37.22;25.42;101227.69;5287647;28;20116;-80
2023/06/13 11:27:10;;;;;;;6.40;3.42;;;;;;;37.26;26.20;101211.19;5294092;28;20037;-81
2023/06/13 11:29:45;;;;;;;6.55;3.70;;;;;;;37.53;26.25;101218.59;5286770;28;20084;-82
2023/06/13 11:32:17;;;;;;;5.68;3.72;;;;;;;37.26;24.96;101222.31;5284119;28;20021;-82
2023/06/13 11:34:52;;;;;;;5.07;3.80;;;;;;;37.64;25.17;101217.22;5284125;28;20833;-81
2023/06/13 11:37:34;;;;;;;;;;;;;;;38.67;25.63;101214.44;5295630;28;20396;-82
2023/06/13 11:40:11;;;;;;;7.65;3.67;;;;;;;37.55;24.84;101210.72;5295165;28;20014;-82
2023/06/13 11:42:42;;;;;;;6.38;3.63;;;;;;;37.41;24.18;101215.53;5290783;28;20040;-81
2023/06/13 11:45:14;;;;;;;5.43;3.40;;;;;;;37.46;24.38;101204.28;5290960;28;20029;-82
2023/06/13 11:47:45;;;;;;;8.55;3.35;;;;;;;37.56;25.22;101219.94;5290705;28;20634;-81
2023/06/13 11:50:24;;;;;;;5.07;3.53;;;;;;;37.50;24.75;101222.00;5284749;28;20606;-82
2023/06/13 11:53:07;;;;;;;7.15;3.20;;;;;;;37.49;24.92;101214.00;5290856;28;20099;-82